createdAt,value
2022-12-28T00:02:19.287Z,101407.69
2022-12-28T00:04:47.121Z,101401.13
2022-12-28T00:07:14.809Z,101392.28
2022-12-28T00:09:42.552Z,101393.41
2022-12-28T00:12:10.270Z,101384.22
2022-12-28T00:14:39.372Z,101381.38
2022-12-28T00:17:07.109Z,101376.13
2022-12-28T00:19:34.928Z,101371.06
2022-12-28T00:22:02.818Z,101370.88
2022-12-28T00:24:30.507Z,101364.78
2022-12-28T00:26:58.148Z,101370.69
2022-12-28T00:29:25.948Z,101359.38
2022-12-28T00:31:55.148Z,101343.88
2022-12-28T00:34:22.959Z,101341.69
2022-12-28T00:37:10.103Z,101330.97
2022-12-28T00:39:39.488Z,101329.63
2022-12-28T00:42:07.259Z,101334.69
2022-12-28T00:44:34.931Z,101319.03
2022-12-28T00:47:03.997Z,101321.75
2022-12-28T00:49:31.726Z,101320.06
2022-12-28T00:51:59.366Z,101318.44
2022-12-28T00:54:27.113Z,101304.47
2022-12-28T00:56:54.841Z,101302.69
2022-12-28T00:59:22.557Z,101293.16
2022-12-28T01:01:50.307Z,101273.81
2022-12-28T01:04:19.498Z,101273.66
2022-12-28T01:06:47.167Z,101272.97
2022-12-28T01:09:14.866Z,101272.97
2022-12-28T01:11:42.580Z,101270.34
2022-12-28T01:14:10.429Z,101268.38
2022-12-28T01:16:38.474Z,101262.66
2022-12-28T01:19:07.811Z,101245.09
2022-12-28T01:21:37.734Z,101240.31
2022-12-28T01:24:08.068Z,101248.97
2022-12-28T01:26:36.478Z,101235.44
2022-12-28T01:29:04.667Z,101233.06
2022-12-28T01:31:32.836Z,101219.09
2022-12-28T01:34:00.848Z,101224.44
2022-12-28T01:36:32.135Z,101215.69
2022-12-28T01:39:04.649Z,101208.94
2022-12-28T01:41:34.583Z,101209.97
2022-12-28T01:44:45.064Z,101193.38
2022-12-28T01:47:19.586Z,101195.03
2022-12-28T01:49:56.222Z,101191.47
2022-12-28T01:52:30.997Z,101181.63
2022-12-28T01:55:06.044Z,101181.34
2022-12-28T01:57:38.986Z,101190.56
2022-12-28T02:00:10.869Z,101185.66
2022-12-28T02:02:39.869Z,101171.59
2022-12-28T02:05:09.093Z,101165.84
2022-12-28T02:07:43.550Z,101172.50
2022-12-28T02:10:41.173Z,101186.41
2022-12-28T02:13:01.590Z,101200.00
2022-12-28T02:15:29.351Z,101198.38
2022-12-28T02:17:58.082Z,101190.84
2022-12-28T02:20:34.457Z,101175.47
2022-12-28T02:23:28.468Z,101174.63
2022-12-28T02:26:28.112Z,101163.66
2022-12-28T02:29:22.885Z,101176.50
2022-12-28T02:31:59.373Z,101181.34
2022-12-28T02:34:33.479Z,101174.41
2022-12-28T02:37:04.982Z,101169.53
2022-12-28T02:39:38.533Z,101164.38
2022-12-28T02:42:09.927Z,101163.44
2022-12-28T02:44:57.714Z,101163.59
2022-12-28T02:47:43.072Z,101162.06
2022-12-28T02:50:16.914Z,101163.78
2022-12-28T02:53:12.309Z,101137.47
2022-12-28T02:56:08.565Z,101150.84
2022-12-28T02:59:05.985Z,101151.78
2022-12-28T03:01:59.333Z,101147.38
2022-12-28T03:04:39.465Z,101142.50
2022-12-28T03:07:31.355Z,101140.19
2022-12-28T03:10:07.630Z,101147.72
2022-12-28T03:12:41.723Z,101136.25
2022-12-28T03:15:30.008Z,101132.44
2022-12-28T03:18:23.269Z,101133.09
2022-12-28T03:21:10.755Z,101118.53
2022-12-28T03:23:59.472Z,101111.59
2022-12-28T03:26:47.286Z,101103.94
2022-12-28T03:29:36.653Z,101105.13
2022-12-28T03:32:05.162Z,101102.09
2022-12-28T03:34:55.240Z,101091.84
2022-12-28T03:37:28.782Z,101094.38
2022-12-28T03:40:03.349Z,101097.34
2022-12-28T03:42:53.716Z,101082.59
2022-12-28T03:45:46.340Z,101069.56
2022-12-28T03:48:13.994Z,101064.28
2022-12-28T03:50:46.118Z,101063.22
2022-12-28T03:53:14.296Z,101051.44
2022-12-28T03:55:43.299Z,101047.63
2022-12-28T03:58:11.246Z,101044.06
2022-12-28T04:00:38.956Z,101043.19
2022-12-28T04:03:07.100Z,101041.97
2022-12-28T04:05:34.957Z,101037.00
2022-12-28T04:08:04.091Z,101031.50
2022-12-28T04:10:31.735Z,101022.19
2022-12-28T04:12:59.432Z,101022.19
2022-12-28T04:15:27.195Z,101022.66
2022-12-28T04:17:54.928Z,101021.69
2022-12-28T04:20:22.691Z,101026.13
2022-12-28T04:22:50.387Z,101030.25
2022-12-28T04:25:19.913Z,101033.59
2022-12-28T04:27:47.608Z,101029.69
2022-12-28T04:30:15.471Z,101030.31
2022-12-28T04:32:43.229Z,101032.72
2022-12-28T04:35:10.958Z,101020.41
2022-12-28T04:37:38.974Z,101014.91
2022-12-28T04:40:07.886Z,101012.03
2022-12-28T04:42:36.909Z,101011.09
2022-12-28T04:45:05.129Z,101014.66
2022-12-28T04:47:32.876Z,101016.56
2022-12-28T04:50:00.554Z,101012.88
2022-12-28T04:52:28.313Z,101011.78
2022-12-28T04:54:55.997Z,101014.31
2022-12-28T04:57:23.814Z,101024.44
2022-12-28T04:59:52.878Z,101020.00
2022-12-28T05:02:20.711Z,101018.63
2022-12-28T05:04:48.429Z,101019.38
2022-12-28T05:07:21.270Z,101010.28
2022-12-28T05:09:49.043Z,101011.47
2022-12-28T05:12:16.712Z,101010.50
2022-12-28T05:14:44.736Z,101015.53
2022-12-28T05:17:13.799Z,101018.59
2022-12-28T05:19:41.948Z,101009.97
2022-12-28T05:22:11.882Z,101007.53
2022-12-28T05:24:39.586Z,100995.81
2022-12-28T05:27:07.271Z,100990.16
2022-12-28T05:29:34.958Z,100990.34
2022-12-28T05:32:02.631Z,100977.47
2022-12-28T05:34:31.670Z,100981.16
2022-12-28T05:36:59.444Z,100966.72
2022-12-28T05:39:27.158Z,100968.41
2022-12-28T05:41:54.818Z,100968.94
2022-12-28T05:44:22.531Z,100965.97
2022-12-28T05:46:50.213Z,100965.25
2022-12-28T05:49:17.947Z,100965.59
2022-12-28T05:51:53.089Z,100965.47
2022-12-28T05:54:23.705Z,100962.72
2022-12-28T05:56:52.399Z,100962.16
2022-12-28T05:59:20.092Z,100959.50
2022-12-28T06:01:47.900Z,100964.19
2022-12-28T06:04:17.914Z,100958.28
2022-12-28T06:06:48.330Z,100956.59
2022-12-28T06:09:18.811Z,100956.06
2022-12-28T06:11:50.089Z,100960.50
2022-12-28T06:14:17.733Z,100950.91
2022-12-28T06:16:46.002Z,100950.06
2022-12-28T06:19:15.451Z,100952.81
2022-12-28T06:21:43.609Z,100950.66
2022-12-28T06:24:13.887Z,100956.56
2022-12-28T06:26:42.369Z,100954.47
2022-12-28T06:29:10.535Z,100952.59
2022-12-28T06:31:40.628Z,100950.53
2022-12-28T06:34:09.894Z,100941.09
2022-12-28T06:36:39.440Z,100932.72
2022-12-28T06:39:09.534Z,100935.56
2022-12-28T06:41:39.562Z,100937.97
2022-12-28T06:44:08.336Z,100942.31
2022-12-28T06:46:36.089Z,100939.41
2022-12-28T06:49:03.922Z,100935.09
2022-12-28T06:51:36.156Z,100934.88
2022-12-28T06:54:04.002Z,100925.53
2022-12-28T06:56:34.059Z,100933.09
2022-12-28T06:59:04.325Z,100927.44
2022-12-28T07:01:34.654Z,100933.88
2022-12-28T07:04:03.715Z,100928.06
2022-12-28T07:06:36.529Z,100926.91
2022-12-28T07:09:06.340Z,100934.47
2022-12-28T07:11:34.482Z,100921.16
2022-12-28T07:14:03.720Z,100930.41
2022-12-28T07:19:06.868Z,100922.22
2022-12-28T07:21:37.103Z,100928.22
2022-12-28T07:24:06.172Z,100917.31
2022-12-28T07:26:36.433Z,100914.94
2022-12-28T07:29:07.504Z,100910.50
2022-12-28T07:31:43.605Z,100910.50
2022-12-28T07:34:12.780Z,100897.06
2022-12-28T07:36:40.638Z,100894.19
2022-12-28T07:39:08.388Z,100894.41
2022-12-28T07:41:37.342Z,100895.41
2022-12-28T07:44:07.005Z,100903.78
2022-12-28T07:46:37.317Z,100901.88
2022-12-28T07:49:05.336Z,100898.28
2022-12-28T07:51:34.928Z,100891.56
2022-12-28T07:54:03.015Z,100892.75
2022-12-28T07:59:01.185Z,100886.28
2022-12-28T08:01:32.195Z,100884.13
2022-12-28T08:04:02.239Z,100878.03
2022-12-28T08:06:31.837Z,100871.19
2022-12-28T08:09:01.246Z,100874.16
2022-12-28T08:11:30.623Z,100860.63
2022-12-28T08:13:59.703Z,100860.03
2022-12-28T08:16:29.230Z,100862.56
2022-12-28T08:18:58.473Z,100859.66
2022-12-28T08:21:28.308Z,100867.34
2022-12-28T08:23:56.956Z,100874.78
2022-12-28T08:26:26.666Z,100878.16
2022-12-28T08:28:56.531Z,100881.75
2022-12-28T08:31:26.242Z,100878.38
2022-12-28T08:33:55.316Z,100876.25
2022-12-28T08:36:24.688Z,100884.63
2022-12-28T08:38:52.570Z,100879.34
2022-12-28T08:41:22.487Z,100889.06
2022-12-28T08:43:51.356Z,100880.19
2022-12-28T08:46:21.807Z,100878.63
2022-12-28T08:48:50.777Z,100876.59
2022-12-28T08:51:20.492Z,100877.22
2022-12-28T08:53:50.116Z,100878.41
2022-12-28T08:56:32.193Z,100863.75
2022-12-28T08:59:00.962Z,100865.44
2022-12-28T09:01:34.731Z,100865.88
2022-12-28T09:04:07.716Z,100870.44
2022-12-28T09:06:37.429Z,100862.63
2022-12-28T09:09:08.690Z,100860.09
2022-12-28T09:11:37.510Z,100866.38
2022-12-28T09:14:09.779Z,100861.53
2022-12-28T09:16:40.566Z,100869.91
2022-12-28T09:19:10.338Z,100861.63
2022-12-28T09:21:39.888Z,100855.97
2022-12-28T09:24:09.547Z,100853.41
2022-12-28T09:26:39.246Z,100853.97
2022-12-28T09:29:09.635Z,100846.25
2022-12-28T09:31:38.548Z,100856.84
2022-12-28T09:36:54.764Z,100845.53
2022-12-28T09:39:25.066Z,100845.31
2022-12-28T09:41:56.369Z,100845.50
2022-12-28T09:44:37.575Z,100849.63
2022-12-28T09:47:17.280Z,100842.66
2022-12-28T09:49:51.538Z,100852.31
2022-12-28T09:52:28.423Z,100839.69
2022-12-28T09:55:05.208Z,100838.56
2022-12-28T09:57:38.076Z,100840.53
2022-12-28T10:00:08.871Z,100841.22
2022-12-28T10:02:39.286Z,100844.47
2022-12-28T10:05:08.383Z,100834.41
2022-12-28T10:07:37.807Z,100848.81
2022-12-28T10:10:07.611Z,100839.31
2022-12-28T10:12:36.166Z,100839.97
2022-12-28T10:15:07.507Z,100834.41
2022-12-28T10:17:35.265Z,100826.56
2022-12-28T10:20:03.044Z,100818.06
2022-12-28T10:22:42.409Z,100818.47
2022-12-28T10:25:17.869Z,100814.00
2022-12-28T10:27:45.695Z,100802.94
2022-12-28T10:30:20.380Z,100792.22
2022-12-28T10:32:59.493Z,100805.31
2022-12-28T10:35:42.368Z,100801.44
2022-12-28T10:38:22.092Z,100809.72
2022-12-28T10:40:59.496Z,100796.59
2022-12-28T10:43:30.130Z,100797.28
2022-12-28T10:45:59.425Z,100790.03
2022-12-28T10:48:30.293Z,100793.94
2022-12-28T10:51:01.487Z,100784.28
2022-12-28T10:53:32.883Z,100783.59
2022-12-28T10:56:20.900Z,100777.66
2022-12-28T10:58:49.967Z,100775.97
2022-12-28T11:01:20.887Z,100756.75
2022-12-28T11:04:01.302Z,100754.22
2022-12-28T11:06:30.892Z,100748.84
2022-12-28T11:09:17.609Z,100743.69
2022-12-28T11:11:47.973Z,100746.53
2022-12-28T11:14:26.544Z,100741.69
2022-12-28T11:16:54.348Z,100737.84
2022-12-28T11:19:23.292Z,100737.25
2022-12-28T11:21:51.508Z,100737.84
2022-12-28T11:24:21.380Z,100741.03
2022-12-28T11:26:51.481Z,100732.31
2022-12-28T11:29:20.438Z,100729.47
2022-12-28T11:31:52.579Z,100727.44
2022-12-28T11:34:24.513Z,100720.78
2022-12-28T11:36:52.727Z,100706.50
2022-12-28T11:39:43.734Z,100708.28
2022-12-28T11:42:39.169Z,100703.69
2022-12-28T11:45:02.750Z,100707.16
2022-12-28T11:47:35.556Z,100705.94
2022-12-28T11:50:42.120Z,100706.00
2022-12-28T11:53:24.076Z,100700.44
2022-12-28T11:56:07.523Z,100706.00
2022-12-28T11:59:21.583Z,100697.09
2022-12-28T12:01:57.546Z,100690.25
2022-12-28T12:04:39.543Z,100687.19
2022-12-28T12:07:31.295Z,100672.53
2022-12-28T12:10:33.935Z,100667.53
2022-12-28T12:13:05.204Z,100656.88
2022-12-28T12:15:41.116Z,100649.75
2022-12-28T12:18:19.438Z,100650.19
2022-12-28T12:20:53.256Z,100648.34
2022-12-28T12:23:29.142Z,100646.19
2022-12-28T12:26:00.874Z,100642.34
2022-12-28T12:28:35.808Z,100639.38
2022-12-28T12:31:16.823Z,100633.69
2022-12-28T12:33:49.441Z,100638.28
2022-12-28T12:36:40.785Z,100624.50
2022-12-28T12:39:24.492Z,100621.84
2022-12-28T12:42:02.823Z,100618.00
2022-12-28T12:44:36.216Z,100615.09
2022-12-28T12:47:21.319Z,100605.69
2022-12-28T12:50:00.832Z,100607.38
2022-12-28T12:52:42.404Z,100599.72
2022-12-28T12:55:23.513Z,100601.38
2022-12-28T12:57:59.282Z,100601.69
2022-12-28T13:00:39.112Z,100598.06
2022-12-28T13:03:33.336Z,100589.41
2022-12-28T13:06:01.338Z,100589.59
2022-12-28T13:08:34.963Z,100586.56
2022-12-28T13:11:04.270Z,100583.44
2022-12-28T13:13:35.195Z,100586.25
2022-12-28T13:16:06.165Z,100579.97
2022-12-28T13:18:50.666Z,100581.94
2022-12-28T13:21:21.294Z,100580.94
2022-12-28T13:23:49.695Z,100574.66
2022-12-28T13:26:17.984Z,100562.69
2022-12-28T13:28:52.464Z,100561.28
2022-12-28T13:31:23.466Z,100557.66
2022-12-28T13:34:00.986Z,100562.59
2022-12-28T13:36:29.028Z,100552.25
2022-12-28T13:39:12.986Z,100545.56
2022-12-28T13:41:49.355Z,100540.69
2022-12-28T13:44:29.565Z,100541.66
2022-12-28T13:47:02.751Z,100536.81
2022-12-28T13:49:36.752Z,100529.28
2022-12-28T13:52:10.051Z,100517.97
2022-12-28T13:54:38.864Z,100524.81
2022-12-28T13:57:44.641Z,100523.53
2022-12-28T13:59:56.816Z,100514.34
2022-12-28T14:02:27.364Z,100512.53
2022-12-28T14:04:56.936Z,100508.66
2022-12-28T14:07:30.269Z,100511.16
2022-12-28T14:09:58.995Z,100508.66
2022-12-28T14:12:28.067Z,100510.00
2022-12-28T14:14:56.234Z,100493.72
2022-12-28T14:17:25.469Z,100499.31
2022-12-28T14:19:58.480Z,100495.41
2022-12-28T14:22:29.760Z,100492.06
2022-12-28T14:25:07.183Z,100482.56
2022-12-28T14:27:37.884Z,100482.72
2022-12-28T14:30:08.829Z,100481.31
2022-12-28T14:32:42.713Z,100476.00
2022-12-28T14:35:19.301Z,100470.69
2022-12-28T14:37:51.079Z,100466.50
2022-12-28T14:40:27.380Z,100466.78
2022-12-28T14:42:56.845Z,100462.88
2022-12-28T14:48:32.162Z,100465.34
2022-12-28T14:51:03.478Z,100467.06
2022-12-28T14:53:32.160Z,100470.25
2022-12-28T14:56:07.623Z,100455.47
2022-12-28T14:58:50.466Z,100452.97
2022-12-28T15:01:20.991Z,100449.25
2022-12-28T15:03:51.261Z,100455.91
2022-12-28T15:06:20.814Z,100456.88
2022-12-28T15:08:50.005Z,100463.16
2022-12-28T15:11:19.015Z,100451.91
2022-12-28T15:13:47.276Z,100464.84
2022-12-28T15:16:17.854Z,100453.13
2022-12-28T15:18:48.201Z,100452.28
2022-12-28T15:21:18.446Z,100452.28
2022-12-28T15:23:50.118Z,100450.78
2022-12-28T15:26:17.804Z,100441.88
2022-12-28T15:28:45.605Z,100448.59
2022-12-28T15:31:16.965Z,100444.00
2022-12-28T15:33:45.356Z,100450.69
2022-12-28T15:36:17.794Z,100441.78
2022-12-28T15:38:46.144Z,100449.03
2022-12-28T15:41:29.402Z,100449.44
2022-12-28T15:43:57.154Z,100435.41
2022-12-28T15:46:25.109Z,100434.28
2022-12-28T15:48:52.922Z,100416.56
2022-12-28T15:51:20.859Z,100414.28
2022-12-28T15:53:48.593Z,100408.28
2022-12-28T15:56:23.737Z,100411.09
2022-12-28T15:58:54.675Z,100403.31
2022-12-28T16:01:23.052Z,100393.00
2022-12-28T16:03:51.230Z,100392.16
2022-12-28T16:06:19.317Z,100397.59
2022-12-28T16:08:47.286Z,100394.94
2022-12-28T16:11:16.882Z,100387.13
2022-12-28T16:13:51.717Z,100392.19
2022-12-28T16:16:20.168Z,100387.38
2022-12-28T16:18:48.159Z,100398.09
2022-12-28T16:21:16.570Z,100384.84
2022-12-28T16:23:45.518Z,100391.94
2022-12-28T16:26:14.135Z,100389.44
2022-12-28T16:28:42.248Z,100383.28
2022-12-28T16:31:22.267Z,100381.09
2022-12-28T16:33:53.498Z,100371.91
2022-12-28T16:36:21.622Z,100375.56
2022-12-28T16:38:49.652Z,100383.53
2022-12-28T16:41:17.980Z,100380.88
2022-12-28T16:43:46.513Z,100384.22
2022-12-28T16:46:16.270Z,100386.13
2022-12-28T16:48:44.379Z,100387.41
2022-12-28T16:51:13.197Z,100388.13
2022-12-28T16:53:41.086Z,100387.00
2022-12-28T16:56:11.510Z,100387.84
2022-12-28T16:58:39.216Z,100382.25
2022-12-28T17:01:09.277Z,100383.69
2022-12-28T17:03:39.781Z,100382.03
2022-12-28T17:06:08.159Z,100385.06
2022-12-28T17:08:36.700Z,100380.16
2022-12-28T17:11:09.221Z,100376.69
2022-12-28T17:13:37.211Z,100367.63
2022-12-28T17:16:06.186Z,100360.09
2022-12-28T17:18:33.996Z,100368.19
2022-12-28T17:21:06.874Z,100362.63
2022-12-28T17:23:34.994Z,100353.31
2022-12-28T17:26:02.671Z,100360.00
2022-12-28T17:28:30.513Z,100353.03
2022-12-28T17:31:05.966Z,100348.56
2022-12-28T17:33:39.187Z,100354.00
2022-12-28T17:36:09.649Z,100342.16
2022-12-28T17:38:38.628Z,100340.47
2022-12-28T17:41:11.350Z,100346.66
2022-12-28T17:43:39.516Z,100341.88
2022-12-28T17:46:07.872Z,100339.94
2022-12-28T17:48:35.631Z,100321.16
2022-12-28T17:51:10.866Z,100333.28
2022-12-28T17:53:41.048Z,100330.44
2022-12-28T17:56:10.975Z,100317.81
2022-12-28T17:58:39.082Z,100322.41
2022-12-28T18:01:07.497Z,100307.22
2022-12-28T18:03:35.713Z,100297.44
2022-12-28T18:06:03.519Z,100295.91
2022-12-28T18:08:31.338Z,100296.63
2022-12-28T18:11:00.751Z,100287.00
2022-12-28T18:13:31.667Z,100283.38
2022-12-28T18:15:59.791Z,100278.06
2022-12-28T18:18:27.600Z,100266.78
2022-12-28T18:20:59.249Z,100266.94
2022-12-28T18:23:28.096Z,100256.19
2022-12-28T18:26:03.444Z,100259.69
2022-12-28T18:28:31.631Z,100250.91
2022-12-28T18:31:01.944Z,100248.56
2022-12-28T18:33:30.842Z,100249.41
2022-12-28T18:36:02.898Z,100240.03
2022-12-28T18:38:30.833Z,100231.25
2022-12-28T18:41:00.263Z,100233.16
2022-12-28T18:43:29.743Z,100228.53
2022-12-28T18:45:59.597Z,100218.94
2022-12-28T18:48:28.451Z,100226.59
2022-12-28T18:50:57.475Z,100220.31
2022-12-28T18:53:26.158Z,100223.63
2022-12-28T18:55:58.335Z,100216.38
2022-12-28T18:58:26.168Z,100215.38
2022-12-28T19:00:55.470Z,100210.53
2022-12-28T19:03:23.374Z,100211.06
2022-12-28T19:06:02.562Z,100216.38
2022-12-28T19:08:31.317Z,100208.63
2022-12-28T19:10:59.004Z,100207.50
2022-12-28T19:13:26.733Z,100199.84
2022-12-28T19:15:55.935Z,100182.53
2022-12-28T19:18:23.684Z,100200.25
2022-12-28T19:20:56.993Z,100189.25
2022-12-28T19:23:25.089Z,100178.38
2022-12-28T19:25:54.616Z,100187.00
2022-12-28T19:28:22.391Z,100180.41
2022-12-28T19:30:51.610Z,100184.44
2022-12-28T19:33:20.765Z,100185.97
2022-12-28T19:35:48.653Z,100175.88
2022-12-28T19:38:16.386Z,100183.53
2022-12-28T19:40:44.070Z,100174.63
2022-12-28T19:43:12.893Z,100165.81
2022-12-28T19:45:40.616Z,100158.56
2022-12-28T19:48:08.303Z,100170.28
2022-12-28T19:50:37.810Z,100151.44
2022-12-28T19:53:05.821Z,100155.72
2022-12-28T19:55:34.428Z,100152.78
2022-12-28T19:58:02.214Z,100151.50
2022-12-28T20:00:29.973Z,100138.56
2022-12-28T20:02:57.847Z,100140.44
2022-12-28T20:05:26.095Z,100143.06
2022-12-28T20:07:55.131Z,100138.47
2022-12-28T20:10:22.833Z,100131.50
2022-12-28T20:12:50.541Z,100133.78
2022-12-28T20:15:18.304Z,100128.69
2022-12-28T20:17:47.383Z,100121.88
2022-12-28T20:20:17.083Z,100119.41
2022-12-28T20:22:46.112Z,100109.97
2022-12-28T20:25:17.046Z,100114.06
2022-12-28T20:27:44.804Z,100118.38
2022-12-28T20:30:13.631Z,100109.00
2022-12-28T20:32:44.923Z,100100.88
2022-12-28T20:35:13.123Z,100099.69
2022-12-28T20:37:41.298Z,100085.59
2022-12-28T20:40:09.964Z,100108.78
2022-12-28T20:42:56.409Z,100090.06
2022-12-28T20:45:27.183Z,100104.16
2022-12-28T20:47:54.992Z,100097.72
2022-12-28T20:50:22.735Z,100087.72
2022-12-28T20:52:53.729Z,100083.25
2022-12-28T20:55:21.545Z,100079.94
2022-12-28T20:57:50.600Z,100076.97
2022-12-28T21:00:19.036Z,100074.75
2022-12-28T21:02:47.079Z,100081.19
2022-12-28T21:05:15.384Z,100084.97
2022-12-28T21:07:43.128Z,100082.00
2022-12-28T21:10:11.099Z,100089.47
2022-12-28T21:12:39.060Z,100085.00
2022-12-28T21:15:09.650Z,100086.06
2022-12-28T21:17:37.332Z,100081.19
2022-12-28T21:20:05.557Z,100083.69
2022-12-28T21:22:33.254Z,100086.63
2022-12-28T21:25:00.982Z,100095.63
2022-12-28T21:27:29.596Z,100095.47
2022-12-28T21:29:57.272Z,100087.63
2022-12-28T21:32:26.347Z,100078.72
2022-12-28T21:34:54.067Z,100068.59
2022-12-28T21:37:36.738Z,100062.28
2022-12-28T21:40:06.507Z,100068.41
2022-12-28T21:42:34.367Z,100063.09
2022-12-28T21:45:02.237Z,100059.41
2022-12-28T21:47:32.233Z,100058.09
2022-12-28T21:50:00.037Z,100052.50
2022-12-28T21:52:30.648Z,100055.31
2022-12-28T21:55:18.474Z,100057.56
2022-12-28T21:57:49.596Z,100043.88
2022-12-28T22:00:31.543Z,100050.59
2022-12-28T22:03:18.047Z,100065.38
2022-12-28T22:06:03.860Z,100061.59
2022-12-28T22:08:49.963Z,100055.91
2022-12-28T22:11:35.889Z,100060.72
2022-12-28T22:14:04.072Z,100048.09
2022-12-28T22:16:33.853Z,100056.03
2022-12-28T22:19:04.297Z,100052.03
2022-12-28T22:21:32.457Z,100052.72
2022-12-28T22:24:05.929Z,100051.72
2022-12-28T22:26:33.657Z,100056.03
2022-12-28T22:29:02.531Z,100051.25
2022-12-28T22:31:30.408Z,100051.88
2022-12-28T22:34:03.201Z,100051.34
2022-12-28T22:36:35.876Z,100037.13
2022-12-28T22:39:03.553Z,100030.19
2022-12-28T22:41:31.315Z,100040.16
2022-12-28T22:43:59.292Z,100036.84
2022-12-28T22:46:26.971Z,100037.19
2022-12-28T22:48:54.734Z,100027.97
2022-12-28T22:51:22.422Z,100022.97
2022-12-28T22:53:51.551Z,100023.16
2022-12-28T22:56:20.701Z,100015.38
2022-12-28T22:58:48.728Z,100015.38
2022-12-28T23:01:18.330Z,100017.56
2022-12-28T23:03:47.551Z,100016.41
2022-12-28T23:06:17.301Z,100010.47
2022-12-28T23:08:45.936Z,100021.06
2022-12-28T23:14:41.076Z,100019.44
2022-12-28T23:17:12.599Z,100027.72
2022-12-28T23:19:58.344Z,100018.97
2022-12-28T23:22:45.713Z,100015.34
2022-12-28T23:25:48.259Z,100009.38
2022-12-28T23:28:17.309Z,100011.69
2022-12-28T23:30:49.514Z,100004.38
2022-12-28T23:33:18.697Z,100006.22
2022-12-28T23:35:46.726Z,99997.66
2022-12-28T23:38:14.716Z,99994.00
2022-12-28T23:40:42.930Z,99992.03
2022-12-28T23:43:10.761Z,99986.06
2022-12-28T23:45:39.105Z,99992.38
2022-12-28T23:48:08.176Z,99977.91
2022-12-28T23:50:35.947Z,99987.91
2022-12-28T23:53:03.798Z,99989.22
2022-12-28T23:55:31.508Z,99977.44
2022-12-28T23:57:59.188Z,99983.09
